Airfield :
LOGIN :

Register | Disclaimer

   EN    FR    IT 

 










Legend :    VFR   Marginal VFR   IFR   Intensive IFR   Very Intensive IFR
Visi :
Ceiling :
>= 8 km
>= 3000ft
5 to 8 km
1000 to 3000 ft
1500m to 5 km
500 to 1000 ft
800 to 1500m
200 to 500 ft
< 800m
< 200 ft
Symbols :   Thunderstorms  Fog  Heavy snow  Heavy precipitations  Wind > 20 kt
SIGMETs :     Misc.  Thunderstorms  Icing  Turbulence  Mountain Waves  Volcanic Ashes






- Airport Elevation : 22 ft
- IATA code : TUN


DTTA - Tunis Carthage

CURRENT METAR :
  • 120500Z 25006KT 220V320 9999 SCT020 12/11 Q1012

EXPIRED METARs :
  • 120430Z 22008KT 9999 SCT020 12/10 Q1011
  • 120400Z 23008KT 9999 SCT020 12/09 Q1011
  • 120300Z 22010KT 9999 BKN020 3^08 Q1011
  • 120230Z 21010KT 9999 SCT023 12/07 Q1012

TAF TAF DTTA
Valid from the 12 at 00:00 until the 13 at 00:00 UTC


112300Z 1200/1224 22010KT 9999 SCT023
BECMG 1204/1206 31022G34KT
PROB40
TEMPO 1205/1212 4000 -TSRA SCT023TCU FEW026CB
BECMG 1214/1216 25010KT



MET'MAP, your aeronautical weather chart ! - Copyright ORBIFLY December 2007 - Disclaimer

ORBIFLY MET'MAP TEAM :

Programming & Development : Alexandra Zaïnal
Concept & original design : Baudouin d'Aumeries
Assistance for programming : Marc-Olivier Méhu
Technical & hardware support : Manuel Goepfert

Contact : metmap@orbifly.com




SOURCES & CREDITS :

   NOAA